sensor_id;sensor_type;location;lat;lon;timestamp;P1;durP1;ratioP1;P2;durP2;ratioP2
51981;SDS011;37998;53.416;6.730;2023-12-20T00:01:38;15.85;;;3.38;;
51981;SDS011;37998;53.416;6.730;2023-12-20T00:04:04;16.77;;;3.72;;
51981;SDS011;37998;53.416;6.730;2023-12-20T00:06:31;15.35;;;3.13;;
51981;SDS011;37998;53.416;6.730;2023-12-20T00:08:56;14.13;;;2.80;;
51981;SDS011;37998;53.416;6.730;2023-12-20T00:11:25;15.93;;;2.97;;
51981;SDS011;37998;53.416;6.730;2023-12-20T00:13:51;13.90;;;2.90;;
51981;SDS011;37998;53.416;6.730;2023-12-20T00:16:17;21.20;;;4.68;;
51981;SDS011;37998;53.416;6.730;2023-12-20T00:18:43;18.17;;;3.20;;
51981;SDS011;37998;53.416;6.730;2023-12-20T00:21:09;12.00;;;3.03;;
51981;SDS011;37998;53.416;6.730;2023-12-20T00:23:35;15.27;;;3.90;;
51981;SDS011;37998;53.416;6.730;2023-12-20T00:26:01;13.93;;;2.67;;
51981;SDS011;37998;53.416;6.730;2023-12-20T00:28:27;21.27;;;3.75;;
51981;SDS011;37998;53.416;6.730;2023-12-20T00:30:52;17.58;;;3.30;;
51981;SDS011;37998;53.416;6.730;2023-12-20T00:33:19;16.08;;;3.38;;
51981;SDS011;37998;53.416;6.730;2023-12-20T00:35:44;12.32;;;2.92;;
51981;SDS011;37998;53.416;6.730;2023-12-20T00:38:10;9.82;;;2.95;;
51981;SDS011;37998;53.416;6.730;2023-12-20T00:40:36;18.80;;;3.90;;
51981;SDS011;37998;53.416;6.730;2023-12-20T00:43:03;15.07;;;3.40;;
51981;SDS011;37998;53.416;6.730;2023-12-20T00:45:29;14.63;;;3.20;;
51981;SDS011;37998;53.416;6.730;2023-12-20T00:47:54;15.63;;;3.28;;
51981;SDS011;37998;53.416;6.730;2023-12-20T00:50:20;12.10;;;3.60;;
51981;SDS011;37998;53.416;6.730;2023-12-20T00:52:47;18.25;;;4.07;;
51981;SDS011;37998;53.416;6.730;2023-12-20T00:55:13;17.88;;;4.57;;
51981;SDS011;37998;53.416;6.730;2023-12-20T00:57:39;15.30;;;3.72;;
51981;SDS011;37998;53.416;6.730;2023-12-20T01:00:05;9.82;;;2.97;;
51981;SDS011;37998;53.416;6.730;2023-12-20T01:02:31;12.68;;;2.60;;
51981;SDS011;37998;53.416;6.730;2023-12-20T01:04:57;11.65;;;2.97;;
51981;SDS011;37998;53.416;6.730;2023-12-20T01:07:23;7.68;;;2.53;;
51981;SDS011;37998;53.416;6.730;2023-12-20T01:09:49;12.77;;;2.55;;
51981;SDS011;37998;53.416;6.730;2023-12-20T01:12:14;13.98;;;3.20;;
51981;SDS011;37998;53.416;6.730;2023-12-20T01:14:40;9.45;;;2.15;;
51981;SDS011;37998;53.416;6.730;2023-12-20T01:17:06;12.93;;;2.20;;
51981;SDS011;37998;53.416;6.730;2023-12-20T01:19:32;9.70;;;2.22;;
51981;SDS011;37998;53.416;6.730;2023-12-20T01:21:58;11.65;;;2.88;;
51981;SDS011;37998;53.416;6.730;2023-12-20T01:24:24;11.27;;;2.70;;
51981;SDS011;37998;53.416;6.730;2023-12-20T01:26:49;18.50;;;2.88;;
51981;SDS011;37998;53.416;6.730;2023-12-20T01:29:15;15.98;;;2.75;;
51981;SDS011;37998;53.416;6.730;2023-12-20T01:31:41;10.60;;;2.75;;
51981;SDS011;37998;53.416;6.730;2023-12-20T01:34:07;11.85;;;3.10;;
51981;SDS011;37998;53.416;6.730;2023-12-20T01:36:33;16.35;;;4.05;;
51981;SDS011;37998;53.416;6.730;2023-12-20T01:38:59;21.48;;;5.15;;
51981;SDS011;37998;53.416;6.730;2023-12-20T01:41:25;18.20;;;3.60;;
51981;SDS011;37998;53.416;6.730;2023-12-20T01:43:50;18.05;;;4.03;;
51981;SDS011;37998;53.416;6.730;2023-12-20T01:46:18;14.32;;;3.80;;
51981;SDS011;37998;53.416;6.730;2023-12-20T01:48:45;13.65;;;2.75;;
51981;SDS011;37998;53.416;6.730;2023-12-20T01:51:12;14.32;;;3.42;;
51981;SDS011;37998;53.416;6.730;2023-12-20T01:53:38;21.33;;;3.85;;
51981;SDS011;37998;53.416;6.730;2023-12-20T01:56:04;17.98;;;3.30;;
51981;SDS011;37998;53.416;6.730;2023-12-20T01:58:31;17.48;;;3.65;;
51981;SDS011;37998;53.416;6.730;2023-12-20T02:00:57;11.85;;;3.17;;
51981;SDS011;37998;53.416;6.730;2023-12-20T02:03:23;14.02;;;3.47;;
51981;SDS011;37998;53.416;6.730;2023-12-20T02:05:49;13.23;;;3.90;;
51981;SDS011;37998;53.416;6.730;2023-12-20T02:08:16;20.73;;;3.75;;
51981;SDS011;37998;53.416;6.730;2023-12-20T02:10:41;13.57;;;3.63;;
51981;SDS011;37998;53.416;6.730;2023-12-20T02:13:08;15.98;;;3.78;;
51981;SDS011;37998;53.416;6.730;2023-12-20T02:15:34;15.93;;;3.80;;
51981;SDS011;37998;53.416;6.730;2023-12-20T02:18:02;16.50;;;4.05;;
51981;SDS011;37998;53.416;6.730;2023-12-20T02:20:28;15.43;;;3.15;;
51981;SDS011;37998;53.416;6.730;2023-12-20T02:22:54;16.42;;;4.35;;
51981;SDS011;37998;53.416;6.730;2023-12-20T02:25:20;19.60;;;4.63;;
51981;SDS011;37998;53.416;6.730;2023-12-20T02:27:45;17.42;;;4.03;;
51981;SDS011;37998;53.416;6.730;2023-12-20T02:30:12;23.58;;;4.55;;
51981;SDS011;37998;53.416;6.730;2023-12-20T02:32:38;17.20;;;4.00;;
51981;SDS011;37998;53.416;6.730;2023-12-20T02:35:03;15.98;;;4.10;;
51981;SDS011;37998;53.416;6.730;2023-12-20T02:37:30;25.27;;;4.03;;
51981;SDS011;37998;53.416;6.730;2023-12-20T02:39:55;20.67;;;3.53;;
51981;SDS011;37998;53.416;6.730;2023-12-20T02:42:24;17.30;;;4.18;;
51981;SDS011;37998;53.416;6.730;2023-12-20T02:44:50;18.00;;;4.18;;
51981;SDS011;37998;53.416;6.730;2023-12-20T02:47:15;22.60;;;3.83;;
51981;SDS011;37998;53.416;6.730;2023-12-20T02:49:41;20.33;;;4.30;;
51981;SDS011;37998;53.416;6.730;2023-12-20T02:52:07;21.00;;;3.95;;
51981;SDS011;37998;53.416;6.730;2023-12-20T02:54:33;20.85;;;4.13;;
51981;SDS011;37998;53.416;6.730;2023-12-20T02:56:59;16.00;;;3.75;;
51981;SDS011;37998;53.416;6.730;2023-12-20T02:59:25;14.18;;;3.17;;
51981;SDS011;37998;53.416;6.730;2023-12-20T03:01:51;15.88;;;3.65;;
51981;SDS011;37998;53.416;6.730;2023-12-20T03:04:17;14.98;;;3.67;;
51981;SDS011;37998;53.416;6.730;2023-12-20T03:06:42;15.70;;;4.00;;
51981;SDS011;37998;53.416;6.730;2023-12-20T03:09:08;15.63;;;4.55;;
51981;SDS011;37998;53.416;6.730;2023-12-20T03:11:34;23.77;;;4.25;;
51981;SDS011;37998;53.416;6.730;2023-12-20T03:14:00;20.73;;;4.63;;
51981;SDS011;37998;53.416;6.730;2023-12-20T03:16:26;25.73;;;4.45;;
51981;SDS011;37998;53.416;6.730;2023-12-20T03:18:52;25.35;;;4.32;;
51981;SDS011;37998;53.416;6.730;2023-12-20T03:21:17;28.10;;;5.78;;
51981;SDS011;37998;53.416;6.730;2023-12-20T03:23:43;27.95;;;4.88;;
51981;SDS011;37998;53.416;6.730;2023-12-20T03:26:09;20.52;;;4.93;;
51981;SDS011;37998;53.416;6.730;2023-12-20T03:28:38;27.08;;;5.38;;
51981;SDS011;37998;53.416;6.730;2023-12-20T03:31:04;26.55;;;4.90;;
51981;SDS011;37998;53.416;6.730;2023-12-20T03:33:30;23.80;;;5.47;;
51981;SDS011;37998;53.416;6.730;2023-12-20T03:35:56;23.20;;;5.82;;
51981;SDS011;37998;53.416;6.730;2023-12-20T03:38:22;26.73;;;5.32;;
51981;SDS011;37998;53.416;6.730;2023-12-20T03:40:49;28.65;;;5.95;;
51981;SDS011;37998;53.416;6.730;2023-12-20T03:43:15;26.70;;;5.38;;
51981;SDS011;37998;53.416;6.730;2023-12-20T03:45:42;23.60;;;5.00;;
51981;SDS011;37998;53.416;6.730;2023-12-20T03:48:08;27.15;;;5.88;;
51981;SDS011;37998;53.416;6.730;2023-12-20T03:50:34;25.20;;;5.00;;
51981;SDS011;37998;53.416;6.730;2023-12-20T03:53:00;22.52;;;5.30;;
51981;SDS011;37998;53.416;6.730;2023-12-20T03:55:26;21.55;;;4.97;;
51981;SDS011;37998;53.416;6.730;2023-12-20T03:57:52;27.02;;;5.88;;
51981;SDS011;37998;53.416;6.730;2023-12-20T04:00:18;26.75;;;5.45;;
51981;SDS011;37998;53.416;6.730;2023-12-20T04:02:44;25.40;;;4.78;;
51981;SDS011;37998;53.416;6.730;2023-12-20T04:05:10;25.20;;;5.13;;
51981;SDS011;37998;53.416;6.730;2023-12-20T04:07:36;28.10;;;6.45;;
51981;SDS011;37998;53.416;6.730;2023-12-20T04:10:03;26.70;;;5.75;;
51981;SDS011;37998;53.416;6.730;2023-12-20T04:12:29;29.35;;;5.43;;
51981;SDS011;37998;53.416;6.730;2023-12-20T04:14:55;35.25;;;5.63;;
51981;SDS011;37998;53.416;6.730;2023-12-20T04:17:24;33.10;;;6.30;;
51981;SDS011;37998;53.416;6.730;2023-12-20T04:19:50;25.30;;;5.40;;
51981;SDS011;37998;53.416;6.730;2023-12-20T04:22:20;29.50;;;6.20;;
51981;SDS011;37998;53.416;6.730;2023-12-20T04:24:46;21.40;;;4.80;;
51981;SDS011;37998;53.416;6.730;2023-12-20T04:27:11;22.48;;;5.97;;
51981;SDS011;37998;53.416;6.730;2023-12-20T04:29:37;30.70;;;5.78;;
51981;SDS011;37998;53.416;6.730;2023-12-20T04:32:04;38.03;;;7.05;;
51981;SDS011;37998;53.416;6.730;2023-12-20T04:34:30;30.08;;;6.20;;
51981;SDS011;37998;53.416;6.730;2023-12-20T04:36:56;30.42;;;5.90;;
51981;SDS011;37998;53.416;6.730;2023-12-20T04:39:22;35.90;;;6.35;;
51981;SDS011;37998;53.416;6.730;2023-12-20T04:41:47;30.08;;;6.00;;
51981;SDS011;37998;53.416;6.730;2023-12-20T04:44:13;21.48;;;4.97;;
51981;SDS011;37998;53.416;6.730;2023-12-20T04:46:39;26.65;;;5.65;;
51981;SDS011;37998;53.416;6.730;2023-12-20T04:49:05;27.23;;;5.50;;
51981;SDS011;37998;53.416;6.730;2023-12-20T04:51:34;28.95;;;5.05;;
51981;SDS011;37998;53.416;6.730;2023-12-20T04:54:00;30.05;;;5.85;;
51981;SDS011;37998;53.416;6.730;2023-12-20T04:56:26;28.95;;;5.57;;
51981;SDS011;37998;53.416;6.730;2023-12-20T04:58:52;22.75;;;5.53;;
51981;SDS011;37998;53.416;6.730;2023-12-20T05:01:18;36.00;;;7.18;;
51981;SDS011;37998;53.416;6.730;2023-12-20T05:03:44;20.25;;;5.20;;
51981;SDS011;37998;53.416;6.730;2023-12-20T05:06:10;22.50;;;4.43;;
51981;SDS011;37998;53.416;6.730;2023-12-20T05:08:36;28.23;;;4.75;;
51981;SDS011;37998;53.416;6.730;2023-12-20T05:11:02;29.70;;;5.30;;
51981;SDS011;37998;53.416;6.730;2023-12-20T05:13:28;30.23;;;5.97;;
51981;SDS011;37998;53.416;6.730;2023-12-20T05:15:54;30.00;;;6.20;;
51981;SDS011;37998;53.416;6.730;2023-12-20T05:18:20;31.48;;;5.18;;
51981;SDS011;37998;53.416;6.730;2023-12-20T05:20:46;24.17;;;5.53;;
51981;SDS011;37998;53.416;6.730;2023-12-20T05:23:12;29.45;;;6.18;;
51981;SDS011;37998;53.416;6.730;2023-12-20T05:25:39;27.35;;;5.40;;
51981;SDS011;37998;53.416;6.730;2023-12-20T05:28:05;26.23;;;5.13;;
51981;SDS011;37998;53.416;6.730;2023-12-20T05:30:31;28.13;;;6.10;;
51981;SDS011;37998;53.416;6.730;2023-12-20T05:32:57;23.10;;;5.68;;
51981;SDS011;37998;53.416;6.730;2023-12-20T05:35:22;27.63;;;4.90;;
51981;SDS011;37998;53.416;6.730;2023-12-20T05:37:49;26.13;;;5.60;;
51981;SDS011;37998;53.416;6.730;2023-12-20T05:40:15;34.47;;;6.70;;
51981;SDS011;37998;53.416;6.730;2023-12-20T05:42:41;25.63;;;6.03;;
51981;SDS011;37998;53.416;6.730;2023-12-20T05:45:07;27.98;;;5.47;;
51981;SDS011;37998;53.416;6.730;2023-12-20T05:47:33;28.40;;;4.32;;
51981;SDS011;37998;53.416;6.730;2023-12-20T05:49:59;29.88;;;6.05;;
51981;SDS011;37998;53.416;6.730;2023-12-20T05:52:24;27.45;;;5.50;;
51981;SDS011;37998;53.416;6.730;2023-12-20T05:54:50;30.35;;;6.18;;
51981;SDS011;37998;53.416;6.730;2023-12-20T05:57:16;25.75;;;5.47;;
51981;SDS011;37998;53.416;6.730;2023-12-20T05:59:42;26.95;;;5.22;;
51981;SDS011;37998;53.416;6.730;2023-12-20T06:02:08;25.77;;;5.50;;
51981;SDS011;37998;53.416;6.730;2023-12-20T06:04:33;28.35;;;5.00;;
51981;SDS011;37998;53.416;6.730;2023-12-20T06:06:59;31.88;;;6.32;;
51981;SDS011;37998;53.416;6.730;2023-12-20T06:09:28;17.08;;;4.53;;
51981;SDS011;37998;53.416;6.730;2023-12-20T06:11:54;23.98;;;5.45;;
51981;SDS011;37998;53.416;6.730;2023-12-20T06:14:20;33.05;;;5.63;;
51981;SDS011;37998;53.416;6.730;2023-12-20T06:16:45;24.65;;;5.50;;
51981;SDS011;37998;53.416;6.730;2023-12-20T06:19:11;29.17;;;6.00;;
51981;SDS011;37998;53.416;6.730;2023-12-20T06:21:37;28.63;;;6.00;;
51981;SDS011;37998;53.416;6.730;2023-12-20T06:24:03;29.02;;;5.38;;
51981;SDS011;37998;53.416;6.730;2023-12-20T06:26:29;30.15;;;5.80;;
51981;SDS011;37998;53.416;6.730;2023-12-20T06:28:55;31.63;;;6.57;;
51981;SDS011;37998;53.416;6.730;2023-12-20T06:31:21;29.70;;;5.93;;
51981;SDS011;37998;53.416;6.730;2023-12-20T06:33:47;30.23;;;5.85;;
51981;SDS011;37998;53.416;6.730;2023-12-20T06:36:15;31.70;;;5.93;;
51981;SDS011;37998;53.416;6.730;2023-12-20T06:38:41;28.17;;;5.60;;
51981;SDS011;37998;53.416;6.730;2023-12-20T06:41:07;36.45;;;6.40;;
51981;SDS011;37998;53.416;6.730;2023-12-20T06:43:33;36.58;;;7.00;;
51981;SDS011;37998;53.416;6.730;2023-12-20T06:46:02;33.97;;;7.05;;
51981;SDS011;37998;53.416;6.730;2023-12-20T06:48:28;33.85;;;7.43;;
51981;SDS011;37998;53.416;6.730;2023-12-20T06:50:54;26.40;;;6.30;;
51981;SDS011;37998;53.416;6.730;2023-12-20T06:53:20;30.33;;;6.30;;
51981;SDS011;37998;53.416;6.730;2023-12-20T06:55:45;35.92;;;6.32;;
51981;SDS011;37998;53.416;6.730;2023-12-20T06:58:11;24.70;;;5.95;;
51981;SDS011;37998;53.416;6.730;2023-12-20T07:00:37;33.42;;;7.60;;
51981;SDS011;37998;53.416;6.730;2023-12-20T07:03:03;36.65;;;8.10;;
51981;SDS011;37998;53.416;6.730;2023-12-20T07:05:29;34.22;;;6.68;;
51981;SDS011;37998;53.416;6.730;2023-12-20T07:07:55;31.38;;;6.00;;
51981;SDS011;37998;53.416;6.730;2023-12-20T07:10:21;33.30;;;6.35;;
51981;SDS011;37998;53.416;6.730;2023-12-20T07:12:46;31.63;;;6.25;;
51981;SDS011;37998;53.416;6.730;2023-12-20T07:15:14;31.88;;;7.18;;
51981;SDS011;37998;53.416;6.730;2023-12-20T07:17:40;25.88;;;5.57;;
51981;SDS011;37998;53.416;6.730;2023-12-20T07:20:06;33.75;;;7.43;;
51981;SDS011;37998;53.416;6.730;2023-12-20T07:22:35;27.13;;;6.22;;
51981;SDS011;37998;53.416;6.730;2023-12-20T07:25:01;28.77;;;6.45;;
51981;SDS011;37998;53.416;6.730;2023-12-20T07:27:27;31.67;;;6.45;;
51981;SDS011;37998;53.416;6.730;2023-12-20T07:29:53;37.75;;;6.47;;
51981;SDS011;37998;53.416;6.730;2023-12-20T07:32:18;29.15;;;5.93;;
51981;SDS011;37998;53.416;6.730;2023-12-20T07:34:44;34.05;;;6.53;;
51981;SDS011;37998;53.416;6.730;2023-12-20T07:37:10;32.45;;;6.82;;
51981;SDS011;37998;53.416;6.730;2023-12-20T07:39:40;29.75;;;6.25;;
51981;SDS011;37998;53.416;6.730;2023-12-20T07:42:07;37.97;;;8.02;;
51981;SDS011;37998;53.416;6.730;2023-12-20T07:44:34;32.70;;;7.20;;
51981;SDS011;37998;53.416;6.730;2023-12-20T07:47:01;32.13;;;6.53;;
51981;SDS011;37998;53.416;6.730;2023-12-20T07:49:27;31.45;;;6.88;;
51981;SDS011;37998;53.416;6.730;2023-12-20T07:51:53;36.58;;;7.00;;
51981;SDS011;37998;53.416;6.730;2023-12-20T07:54:19;35.65;;;7.18;;
51981;SDS011;37998;53.416;6.730;2023-12-20T07:56:46;31.30;;;7.10;;
51981;SDS011;37998;53.416;6.730;2023-12-20T07:59:12;47.15;;;7.82;;
51981;SDS011;37998;53.416;6.730;2023-12-20T08:01:38;31.85;;;7.22;;
51981;SDS011;37998;53.416;6.730;2023-12-20T08:04:03;35.70;;;7.72;;
51981;SDS011;37998;53.416;6.730;2023-12-20T08:06:29;35.67;;;6.85;;
51981;SDS011;37998;53.416;6.730;2023-12-20T08:08:55;33.45;;;7.18;;
51981;SDS011;37998;53.416;6.730;2023-12-20T08:11:21;30.42;;;7.65;;
51981;SDS011;37998;53.416;6.730;2023-12-20T08:13:47;28.15;;;6.40;;
51981;SDS011;37998;53.416;6.730;2023-12-20T08:16:13;7.22;;;1.98;;
51981;SDS011;37998;53.416;6.730;2023-12-20T08:18:40;8.05;;;1.30;;
51981;SDS011;37998;53.416;6.730;2023-12-20T08:21:07;6.53;;;1.42;;
51981;SDS011;37998;53.416;6.730;2023-12-20T08:23:33;22.30;;;3.90;;
51981;SDS011;37998;53.416;6.730;2023-12-20T08:26:08;17.08;;;3.78;;
51981;SDS011;37998;53.416;6.730;2023-12-20T08:28:34;20.50;;;3.67;;
51981;SDS011;37998;53.416;6.730;2023-12-20T08:31:01;33.30;;;4.57;;
51981;SDS011;37998;53.416;6.730;2023-12-20T08:33:27;9.75;;;2.08;;
51981;SDS011;37998;53.416;6.730;2023-12-20T08:35:53;11.80;;;2.40;;
51981;SDS011;37998;53.416;6.730;2023-12-20T08:38:19;22.42;;;2.63;;
51981;SDS011;37998;53.416;6.730;2023-12-20T08:40:45;14.50;;;3.20;;
51981;SDS011;37998;53.416;6.730;2023-12-20T08:43:11;15.80;;;2.20;;
51981;SDS011;37998;53.416;6.730;2023-12-20T08:45:37;16.77;;;2.80;;
51981;SDS011;37998;53.416;6.730;2023-12-20T08:48:04;17.75;;;3.00;;
51981;SDS011;37998;53.416;6.730;2023-12-20T08:50:30;12.52;;;2.83;;
51981;SDS011;37998;53.416;6.730;2023-12-20T08:52:56;10.93;;;2.03;;
51981;SDS011;37998;53.416;6.730;2023-12-20T08:55:22;7.47;;;1.65;;
51981;SDS011;37998;53.416;6.730;2023-12-20T08:57:48;12.85;;;2.45;;
51981;SDS011;37998;53.416;6.730;2023-12-20T09:00:15;14.00;;;3.08;;
51981;SDS011;37998;53.416;6.730;2023-12-20T09:02:41;10.70;;;2.30;;
51981;SDS011;37998;53.416;6.730;2023-12-20T09:05:07;20.55;;;3.17;;
51981;SDS011;37998;53.416;6.730;2023-12-20T09:07:33;8.13;;;2.22;;
51981;SDS011;37998;53.416;6.730;2023-12-20T09:09:59;9.15;;;2.50;;
51981;SDS011;37998;53.416;6.730;2023-12-20T09:12:24;9.40;;;3.03;;
51981;SDS011;37998;53.416;6.730;2023-12-20T09:14:51;13.07;;;2.90;;
51981;SDS011;37998;53.416;6.730;2023-12-20T09:17:18;10.43;;;2.22;;
51981;SDS011;37998;53.416;6.730;2023-12-20T09:19:44;16.48;;;2.75;;
51981;SDS011;37998;53.416;6.730;2023-12-20T09:22:11;16.33;;;2.90;;
51981;SDS011;37998;53.416;6.730;2023-12-20T09:24:37;13.50;;;3.05;;
51981;SDS011;37998;53.416;6.730;2023-12-20T09:27:04;20.90;;;2.63;;
51981;SDS011;37998;53.416;6.730;2023-12-20T09:29:30;15.10;;;3.65;;
51981;SDS011;37998;53.416;6.730;2023-12-20T09:31:56;16.05;;;3.22;;
51981;SDS011;37998;53.416;6.730;2023-12-20T09:34:23;15.00;;;3.45;;
51981;SDS011;37998;53.416;6.730;2023-12-20T09:36:49;17.42;;;3.63;;
51981;SDS011;37998;53.416;6.730;2023-12-20T09:39:16;20.33;;;3.75;;
51981;SDS011;37998;53.416;6.730;2023-12-20T09:44:30;17.80;;;3.97;;
51981;SDS011;37998;53.416;6.730;2023-12-20T09:46:57;19.23;;;3.38;;
51981;SDS011;37998;53.416;6.730;2023-12-20T09:49:23;18.17;;;3.45;;
51981;SDS011;37998;53.416;6.730;2023-12-20T09:51:50;23.90;;;3.63;;
51981;SDS011;37998;53.416;6.730;2023-12-20T09:54:17;18.85;;;3.40;;
51981;SDS011;37998;53.416;6.730;2023-12-20T09:56:46;25.33;;;4.20;;
51981;SDS011;37998;53.416;6.730;2023-12-20T09:59:12;17.50;;;3.60;;
51981;SDS011;37998;53.416;6.730;2023-12-20T10:01:39;22.30;;;3.15;;
51981;SDS011;37998;53.416;6.730;2023-12-20T10:04:06;17.40;;;3.42;;
51981;SDS011;37998;53.416;6.730;2023-12-20T10:06:35;19.38;;;4.65;;
51981;SDS011;37998;53.416;6.730;2023-12-20T10:09:02;24.77;;;4.22;;
51981;SDS011;37998;53.416;6.730;2023-12-20T10:11:28;18.95;;;4.03;;
51981;SDS011;37998;53.416;6.730;2023-12-20T10:13:58;27.10;;;5.20;;
51981;SDS011;37998;53.416;6.730;2023-12-20T10:16:28;16.58;;;3.78;;
51981;SDS011;37998;53.416;6.730;2023-12-20T10:18:55;22.67;;;4.60;;
51981;SDS011;37998;53.416;6.730;2023-12-20T10:21:25;21.77;;;5.13;;
51981;SDS011;37998;53.416;6.730;2023-12-20T10:23:52;19.92;;;3.83;;
51981;SDS011;37998;53.416;6.730;2023-12-20T10:26:23;33.60;;;5.72;;
51981;SDS011;37998;53.416;6.730;2023-12-20T10:28:53;25.92;;;4.30;;
51981;SDS011;37998;53.416;6.730;2023-12-20T10:33:57;22.85;;;4.75;;
51981;SDS011;37998;53.416;6.730;2023-12-20T10:36:31;30.42;;;4.90;;
51981;SDS011;37998;53.416;6.730;2023-12-20T10:38:58;29.88;;;4.68;;
51981;SDS011;37998;53.416;6.730;2023-12-20T10:41:26;27.20;;;4.82;;
51981;SDS011;37998;53.416;6.730;2023-12-20T10:43:56;36.90;;;5.68;;
51981;SDS011;37998;53.416;6.730;2023-12-20T10:46:26;30.55;;;5.03;;
51981;SDS011;37998;53.416;6.730;2023-12-20T10:48:54;22.58;;;5.05;;
51981;SDS011;37998;53.416;6.730;2023-12-20T10:51:20;23.33;;;4.53;;
51981;SDS011;37998;53.416;6.730;2023-12-20T10:53:48;21.02;;;4.80;;
51981;SDS011;37998;53.416;6.730;2023-12-20T10:56:18;19.63;;;4.68;;
51981;SDS011;37998;53.416;6.730;2023-12-20T10:58:45;24.73;;;4.85;;
51981;SDS011;37998;53.416;6.730;2023-12-20T11:01:13;27.15;;;5.68;;
51981;SDS011;37998;53.416;6.730;2023-12-20T11:03:50;28.48;;;5.45;;
51981;SDS011;37998;53.416;6.730;2023-12-20T11:09:11;24.55;;;4.63;;
51981;SDS011;37998;53.416;6.730;2023-12-20T11:11:54;26.33;;;5.07;;
51981;SDS011;37998;53.416;6.730;2023-12-20T11:14:31;29.92;;;5.88;;
51981;SDS011;37998;53.416;6.730;2023-12-20T11:17:07;21.48;;;4.93;;
51981;SDS011;37998;53.416;6.730;2023-12-20T11:19:35;16.40;;;3.58;;
51981;SDS011;37998;53.416;6.730;2023-12-20T11:22:03;17.30;;;4.60;;
51981;SDS011;37998;53.416;6.730;2023-12-20T11:24:31;27.25;;;4.82;;
51981;SDS011;37998;53.416;6.730;2023-12-20T11:26:59;28.48;;;5.22;;
51981;SDS011;37998;53.416;6.730;2023-12-20T11:29:33;18.55;;;4.53;;
51981;SDS011;37998;53.416;6.730;2023-12-20T11:34:50;28.50;;;4.68;;
51981;SDS011;37998;53.416;6.730;2023-12-20T11:37:29;23.25;;;4.75;;
51981;SDS011;37998;53.416;6.730;2023-12-20T11:40:00;23.90;;;5.60;;
51981;SDS011;37998;53.416;6.730;2023-12-20T11:42:38;31.15;;;5.38;;
51981;SDS011;37998;53.416;6.730;2023-12-20T11:45:08;30.42;;;5.00;;
51981;SDS011;37998;53.416;6.730;2023-12-20T11:47:34;26.00;;;5.15;;
51981;SDS011;37998;53.416;6.730;2023-12-20T11:50:01;27.17;;;5.10;;
51981;SDS011;37998;53.416;6.730;2023-12-20T11:52:29;28.38;;;6.32;;
51981;SDS011;37998;53.416;6.730;2023-12-20T11:54:56;28.58;;;6.25;;
51981;SDS011;37998;53.416;6.730;2023-12-20T11:57:22;34.90;;;6.55;;
51981;SDS011;37998;53.416;6.730;2023-12-20T11:59:48;26.17;;;4.80;;
51981;SDS011;37998;53.416;6.730;2023-12-20T12:02:14;31.88;;;5.90;;
51981;SDS011;37998;53.416;6.730;2023-12-20T12:04:43;24.45;;;5.18;;
51981;SDS011;37998;53.416;6.730;2023-12-20T12:07:09;36.53;;;5.80;;
51981;SDS011;37998;53.416;6.730;2023-12-20T12:09:35;27.48;;;5.63;;
51981;SDS011;37998;53.416;6.730;2023-12-20T12:12:01;34.28;;;5.47;;
51981;SDS011;37998;53.416;6.730;2023-12-20T12:14:28;26.67;;;6.10;;
51981;SDS011;37998;53.416;6.730;2023-12-20T12:16:54;23.35;;;4.72;;
51981;SDS011;37998;53.416;6.730;2023-12-20T12:19:20;20.00;;;4.32;;
51981;SDS011;37998;53.416;6.730;2023-12-20T12:21:47;20.75;;;4.30;;
51981;SDS011;37998;53.416;6.730;2023-12-20T12:24:13;22.55;;;4.80;;
51981;SDS011;37998;53.416;6.730;2023-12-20T12:26:39;21.75;;;4.53;;
51981;SDS011;37998;53.416;6.730;2023-12-20T12:29:07;27.77;;;6.28;;
51981;SDS011;37998;53.416;6.730;2023-12-20T12:31:33;18.83;;;4.47;;
51981;SDS011;37998;53.416;6.730;2023-12-20T12:33:59;19.08;;;3.92;;
51981;SDS011;37998;53.416;6.730;2023-12-20T12:36:25;18.05;;;3.80;;
51981;SDS011;37998;53.416;6.730;2023-12-20T12:38:51;15.23;;;3.67;;
51981;SDS011;37998;53.416;6.730;2023-12-20T12:41:17;15.90;;;3.20;;
51981;SDS011;37998;53.416;6.730;2023-12-20T12:43:43;19.23;;;3.78;;
51981;SDS011;37998;53.416;6.730;2023-12-20T12:46:08;18.15;;;4.15;;
51981;SDS011;37998;53.416;6.730;2023-12-20T12:48:34;19.08;;;3.58;;
51981;SDS011;37998;53.416;6.730;2023-12-20T12:51:00;20.52;;;4.07;;
51981;SDS011;37998;53.416;6.730;2023-12-20T12:53:26;19.17;;;3.97;;
51981;SDS011;37998;53.416;6.730;2023-12-20T12:55:52;18.17;;;3.17;;
51981;SDS011;37998;53.416;6.730;2023-12-20T12:58:19;16.17;;;4.47;;
51981;SDS011;37998;53.416;6.730;2023-12-20T13:00:45;14.48;;;3.60;;
51981;SDS011;37998;53.416;6.730;2023-12-20T13:03:11;21.20;;;4.35;;
51981;SDS011;37998;53.416;6.730;2023-12-20T13:05:37;15.70;;;4.10;;
51981;SDS011;37998;53.416;6.730;2023-12-20T13:08:03;21.30;;;4.50;;
51981;SDS011;37998;53.416;6.730;2023-12-20T13:10:29;20.30;;;4.57;;
51981;SDS011;37998;53.416;6.730;2023-12-20T13:12:55;22.88;;;5.10;;
51981;SDS011;37998;53.416;6.730;2023-12-20T13:15:21;33.45;;;5.68;;
51981;SDS011;37998;53.416;6.730;2023-12-20T13:17:47;22.52;;;4.60;;
51981;SDS011;37998;53.416;6.730;2023-12-20T13:20:12;19.30;;;4.53;;
51981;SDS011;37998;53.416;6.730;2023-12-20T13:22:38;24.55;;;5.30;;
51981;SDS011;37998;53.416;6.730;2023-12-20T13:25:04;26.48;;;4.13;;
51981;SDS011;37998;53.416;6.730;2023-12-20T13:27:31;25.30;;;4.50;;
51981;SDS011;37998;53.416;6.730;2023-12-20T13:29:58;15.85;;;3.75;;
51981;SDS011;37998;53.416;6.730;2023-12-20T13:32:24;22.50;;;4.95;;
51981;SDS011;37998;53.416;6.730;2023-12-20T13:34:49;19.60;;;4.82;;
51981;SDS011;37998;53.416;6.730;2023-12-20T13:37:15;23.67;;;4.90;;
51981;SDS011;37998;53.416;6.730;2023-12-20T13:39:41;19.02;;;5.15;;
51981;SDS011;37998;53.416;6.730;2023-12-20T13:42:07;20.10;;;4.43;;
51981;SDS011;37998;53.416;6.730;2023-12-20T13:44:33;21.77;;;4.10;;
51981;SDS011;37998;53.416;6.730;2023-12-20T13:46:59;19.25;;;4.70;;
51981;SDS011;37998;53.416;6.730;2023-12-20T13:49:26;21.60;;;4.72;;
51981;SDS011;37998;53.416;6.730;2023-12-20T13:51:53;16.00;;;3.60;;
51981;SDS011;37998;53.416;6.730;2023-12-20T13:54:24;18.42;;;3.88;;
51981;SDS011;37998;53.416;6.730;2023-12-20T13:56:50;24.52;;;4.32;;
51981;SDS011;37998;53.416;6.730;2023-12-20T13:59:15;14.85;;;3.00;;
51981;SDS011;37998;53.416;6.730;2023-12-20T14:01:41;17.83;;;4.43;;
51981;SDS011;37998;53.416;6.730;2023-12-20T14:04:07;15.45;;;3.90;;
51981;SDS011;37998;53.416;6.730;2023-12-20T14:06:33;15.20;;;3.72;;
51981;SDS011;37998;53.416;6.730;2023-12-20T14:08:59;25.13;;;4.45;;
51981;SDS011;37998;53.416;6.730;2023-12-20T14:11:25;13.70;;;3.38;;
51981;SDS011;37998;53.416;6.730;2023-12-20T14:13:51;17.13;;;4.75;;
51981;SDS011;37998;53.416;6.730;2023-12-20T14:16:17;14.68;;;3.33;;
51981;SDS011;37998;53.416;6.730;2023-12-20T14:18:44;16.35;;;3.17;;
51981;SDS011;37998;53.416;6.730;2023-12-20T14:21:10;14.82;;;3.22;;
51981;SDS011;37998;53.416;6.730;2023-12-20T14:23:35;11.68;;;4.43;;
51981;SDS011;37998;53.416;6.730;2023-12-20T14:26:01;17.00;;;4.53;;
51981;SDS011;37998;53.416;6.730;2023-12-20T14:28:28;15.25;;;3.28;;
51981;SDS011;37998;53.416;6.730;2023-12-20T14:30:54;13.65;;;3.20;;
51981;SDS011;37998;53.416;6.730;2023-12-20T14:33:21;16.40;;;3.03;;
51981;SDS011;37998;53.416;6.730;2023-12-20T14:35:47;12.77;;;3.30;;
51981;SDS011;37998;53.416;6.730;2023-12-20T14:38:13;18.63;;;4.55;;
51981;SDS011;37998;53.416;6.730;2023-12-20T14:40:40;19.83;;;4.45;;
51981;SDS011;37998;53.416;6.730;2023-12-20T14:43:06;13.30;;;4.60;;